createdAt,value
2017-09-29T00:01:57.523Z,100189.95
2017-09-29T00:06:02.059Z,100193.09
2017-09-29T00:10:06.271Z,100195.83
2017-09-29T00:14:10.830Z,100193.64
2017-09-29T00:18:14.299Z,100194.05
2017-09-29T00:22:18.137Z,100195.00
2017-09-29T00:26:22.358Z,100187.77
2017-09-29T00:30:26.868Z,100189.55
2017-09-29T00:34:30.439Z,100181.91
2017-09-29T00:38:34.214Z,100184.22
2017-09-29T00:42:38.447Z,100186.95
2017-09-29T00:46:42.264Z,100175.72
2017-09-29T00:50:45.728Z,100169.72
2017-09-29T00:54:49.492Z,100168.07
2017-09-29T00:58:52.947Z,100164.39
2017-09-29T01:02:56.707Z,100166.17
2017-09-29T01:07:00.167Z,100165.76
2017-09-29T01:11:04.018Z,100159.89
2017-09-29T01:15:08.247Z,100157.28
2017-09-29T01:19:12.785Z,100163.98
2017-09-29T01:23:17.068Z,100169.98
2017-09-29T01:27:20.932Z,100174.07
2017-09-29T01:31:24.395Z,100173.80
2017-09-29T01:35:28.240Z,100167.09
2017-09-29T01:39:32.450Z,100170.11
2017-09-29T01:43:36.202Z,100167.09
2017-09-29T01:47:39.666Z,100169.70
2017-09-29T01:51:43.420Z,100162.18
2017-09-29T01:55:46.870Z,100163.95
2017-09-29T01:59:50.635Z,100169.00
2017-09-29T02:03:54.096Z,100159.86
2017-09-29T02:07:57.847Z,100158.09
2017-09-29T02:12:02.077Z,100146.22
2017-09-29T02:16:06.627Z,100151.27
2017-09-29T02:20:10.093Z,100146.86
2017-09-29T02:24:13.932Z,100138.13
2017-09-29T02:28:18.166Z,100144.55
2017-09-29T02:32:21.980Z,100145.08
2017-09-29T02:36:25.444Z,100143.31
2017-09-29T02:40:29.199Z,100143.31
2017-09-29T02:44:32.653Z,100140.70
2017-09-29T02:48:36.728Z,100130.20
2017-09-29T02:52:40.178Z,100134.30
2017-09-29T02:56:51.099Z,100131.57
2017-09-29T03:01:01.308Z,100137.03
2017-09-29T03:05:11.409Z,100127.61
2017-09-29T03:09:14.851Z,100123.64
2017-09-29T03:13:18.664Z,100119.42
2017-09-29T03:17:22.127Z,100119.01
2017-09-29T03:21:25.893Z,100118.59
2017-09-29T03:25:29.360Z,100113.55
2017-09-29T03:29:33.208Z,100112.86
2017-09-29T03:33:36.668Z,100110.54
2017-09-29T03:37:40.433Z,100107.41
2017-09-29T03:41:43.900Z,100100.58
2017-09-29T03:45:47.738Z,100100.17
2017-09-29T03:49:55.876Z,100098.39
2017-09-29T03:54:06.914Z,100099.76
2017-09-29T03:58:17.628Z,100100.68
2017-09-29T04:02:22.158Z,100103.85
2017-09-29T04:06:25.633Z,100099.31
2017-09-29T04:10:29.475Z,100099.45
2017-09-29T04:14:33.706Z,100098.91
2017-09-29T04:18:38.235Z,100094.40
2017-09-29T04:22:42.459Z,100089.07
2017-09-29T04:26:46.994Z,100097.80
2017-09-29T04:30:51.221Z,100100.94
2017-09-29T04:34:55.034Z,100101.48
2017-09-29T04:38:59.256Z,100101.07
2017-09-29T04:43:03.899Z,100099.30
2017-09-29T04:47:08.126Z,100096.56
2017-09-29T04:51:11.938Z,100102.98
2017-09-29T04:55:16.168Z,100100.79
2017-09-29T04:59:19.955Z,100103.11
2017-09-29T05:03:23.411Z,100101.74
2017-09-29T05:07:27.198Z,100099.02
2017-09-29T05:11:31.426Z,100093.55
2017-09-29T05:15:35.967Z,100096.28
2017-09-29T05:19:39.435Z,100099.97
2017-09-29T05:23:43.282Z,100094.92
2017-09-29T05:27:46.749Z,100093.55
2017-09-29T05:31:50.504Z,100102.28
2017-09-29T05:35:53.972Z,100106.78
2017-09-29T05:39:57.822Z,100105.84
2017-09-29T05:44:02.056Z,100105.02
2017-09-29T05:48:05.802Z,100114.56
2017-09-29T05:52:09.277Z,100113.70
2017-09-29T05:56:13.093Z,100116.02
2017-09-29T06:00:16.559Z,100116.44
2017-09-29T06:04:20.414Z,100117.29
2017-09-29T06:08:23.879Z,100124.39
2017-09-29T06:12:27.727Z,100125.50
2017-09-29T06:16:31.947Z,100122.09
2017-09-29T06:20:36.489Z,100127.87
2017-09-29T06:24:40.706Z,100128.69
2017-09-29T06:28:45.247Z,100132.94
2017-09-29T06:32:49.486Z,100139.63
2017-09-29T06:36:53.238Z,100132.67
2017-09-29T06:40:56.707Z,100134.63
2017-09-29T06:45:00.506Z,100138.03
2017-09-29T06:49:04.722Z,100139.42
2017-09-29T06:53:09.358Z,100137.52
2017-09-29T06:57:13.597Z,100136.97
2017-09-29T07:01:17.403Z,100139.60
2017-09-29T07:05:21.667Z,100134.55
2017-09-29T07:09:25.431Z,100140.02
2017-09-29T07:13:28.894Z,100138.11
2017-09-29T07:17:32.768Z,100141.25
2017-09-29T07:21:36.995Z,100141.12
2017-09-29T07:25:46.176Z,100146.03
2017-09-29T07:29:52.395Z,100143.84
2017-09-29T07:33:56.927Z,100132.11
2017-09-29T07:38:01.154Z,100139.20
2017-09-29T07:42:05.687Z,100140.70
2017-09-29T07:46:09.924Z,100138.67
2017-09-29T07:50:14.447Z,100145.08
2017-09-29T07:54:18.692Z,100139.49
2017-09-29T07:58:22.472Z,100138.44
2017-09-29T08:02:25.938Z,100137.58
2017-09-29T08:06:29.819Z,100137.48
2017-09-29T08:10:34.046Z,100132.44
2017-09-29T08:14:38.576Z,100130.72
2017-09-29T08:18:42.787Z,100134.55
2017-09-29T08:22:47.327Z,100133.77
2017-09-29T08:26:51.628Z,100133.83
2017-09-29T08:30:55.472Z,100135.34
2017-09-29T08:34:59.701Z,100132.22
2017-09-29T08:39:04.222Z,100135.95
2017-09-29T08:43:08.453Z,100136.23
2017-09-29T08:47:12.994Z,100128.87
2017-09-29T08:51:16.456Z,100131.05
2017-09-29T08:55:20.311Z,100130.41
2017-09-29T08:59:24.543Z,100129.59
2017-09-29T09:03:28.356Z,100130.00
2017-09-29T09:07:31.817Z,100125.36
2017-09-29T09:11:35.579Z,100119.49
2017-09-29T09:15:39.043Z,100115.81
2017-09-29T09:19:42.896Z,100117.05
2017-09-29T09:23:47.128Z,100119.23
2017-09-29T09:27:50.975Z,100114.72
2017-09-29T09:31:54.447Z,100106.40
2017-09-29T09:35:59.089Z,100111.45
2017-09-29T09:40:02.561Z,100105.45
2017-09-29T09:44:06.317Z,100113.64
2017-09-29T09:48:09.776Z,100118.69
2017-09-29T09:52:13.636Z,100108.17
2017-09-29T09:56:17.095Z,100112.81
2017-09-29T10:00:20.947Z,100105.58
2017-09-29T10:04:25.167Z,100104.89
2017-09-29T10:08:29.717Z,100108.98
2017-09-29T10:12:33.228Z,100101.75
2017-09-29T10:16:37.028Z,100099.97
2017-09-29T10:20:41.255Z,100091.23
2017-09-29T10:24:45.788Z,100087.27
2017-09-29T10:28:50.023Z,100079.91
2017-09-29T10:32:53.824Z,100079.50
2017-09-29T10:36:58.023Z,100078.00
2017-09-29T10:41:01.658Z,100077.59
2017-09-29T10:45:05.891Z,100072.95
2017-09-29T10:49:09.362Z,100070.63
2017-09-29T10:53:12.819Z,100076.09
2017-09-29T10:57:16.623Z,100069.95
2017-09-29T11:01:20.074Z,100060.53
2017-09-29T11:05:23.817Z,100066.69
2017-09-29T11:09:27.270Z,100065.31
2017-09-29T11:13:30.864Z,100062.45
2017-09-29T11:17:34.322Z,100053.86
2017-09-29T11:21:37.824Z,100051.13
2017-09-29T11:25:41.283Z,100050.17
2017-09-29T11:29:44.760Z,100044.71
2017-09-29T11:33:48.219Z,100039.38
2017-09-29T11:37:52.007Z,100043.34
2017-09-29T11:41:55.471Z,100036.93
2017-09-29T11:45:58.978Z,100032.42
2017-09-29T11:50:02.431Z,100026.55
2017-09-29T11:54:06.688Z,100019.09
2017-09-29T11:58:10.142Z,100015.09
2017-09-29T12:02:13.632Z,100013.31
2017-09-29T12:06:17.122Z,100021.81
2017-09-29T12:10:20.599Z,100009.80
2017-09-29T12:14:24.082Z,100003.67
2017-09-29T12:18:28.630Z,100008.09
2017-09-29T12:22:32.197Z,100002.49
2017-09-29T12:26:35.684Z,100001.71
2017-09-29T12:30:39.190Z,99995.98
2017-09-29T12:34:42.675Z,99992.17
2017-09-29T12:38:46.131Z,99989.17
2017-09-29T12:42:49.631Z,99981.29
2017-09-29T12:46:53.105Z,99975.97
2017-09-29T12:50:56.891Z,99979.39
2017-09-29T12:55:01.110Z,99984.61
2017-09-29T12:59:05.354Z,99974.92
2017-09-29T13:03:08.809Z,99971.10
2017-09-29T13:07:12.573Z,99970.42
2017-09-29T13:11:16.014Z,99967.45
2017-09-29T13:15:19.538Z,99960.49
2017-09-29T13:19:22.995Z,99961.31
2017-09-29T13:23:26.803Z,99962.14
2017-09-29T13:27:31.019Z,99955.58
2017-09-29T13:31:35.659Z,99956.41
2017-09-29T13:35:39.893Z,99956.86
2017-09-29T13:39:43.691Z,99957.55
2017-09-29T13:43:47.909Z,99957.00
2017-09-29T13:47:52.175Z,99960.72
2017-09-29T13:51:55.630Z,99954.85
2017-09-29T13:55:59.263Z,99952.53
2017-09-29T14:00:03.508Z,99948.30
2017-09-29T14:04:06.996Z,99949.66
2017-09-29T14:08:11.205Z,99950.48
2017-09-29T14:12:16.267Z,99948.03
2017-09-29T14:16:20.501Z,99944.06
2017-09-29T14:20:23.977Z,99940.23
2017-09-29T14:24:27.444Z,99942.97
2017-09-29T14:28:30.923Z,99934.64
2017-09-29T14:32:34.447Z,99932.59
2017-09-29T14:36:37.937Z,99938.36
2017-09-29T14:40:42.179Z,99938.23
2017-09-29T14:44:45.670Z,99937.69
2017-09-29T14:48:49.892Z,99933.04
2017-09-29T14:52:54.432Z,99933.85
2017-09-29T14:56:57.878Z,99930.13
2017-09-29T15:01:01.331Z,99929.59
2017-09-29T15:05:05.676Z,99922.34
2017-09-29T15:09:09.166Z,99923.81
2017-09-29T15:13:13.499Z,99919.84
2017-09-29T15:17:17.731Z,99930.50
2017-09-29T15:21:21.189Z,99926.13
2017-09-29T15:25:24.670Z,99916.70
2017-09-29T15:29:28.191Z,99915.98
2017-09-29T15:33:31.665Z,99909.70
2017-09-29T15:37:35.130Z,99901.09
2017-09-29T15:41:38.611Z,99895.36
2017-09-29T15:45:42.058Z,99893.72
2017-09-29T15:49:45.807Z,99891.64
2017-09-29T15:53:49.259Z,99896.04
2017-09-29T15:57:53.110Z,99889.75
2017-09-29T16:01:56.571Z,99894.27
2017-09-29T16:06:00.071Z,99884.94
2017-09-29T16:10:03.531Z,99883.16
2017-09-29T16:14:07.776Z,99886.30
2017-09-29T16:18:11.231Z,99883.58
2017-09-29T16:22:14.729Z,99887.40
2017-09-29T16:26:18.190Z,99888.90
2017-09-29T16:30:21.662Z,99892.04
2017-09-29T16:34:25.127Z,99891.22
2017-09-29T16:38:28.617Z,99894.08
2017-09-29T16:42:32.070Z,99900.50
2017-09-29T16:46:35.550Z,99895.55
2017-09-29T16:50:39.003Z,99900.50
2017-09-29T16:54:42.478Z,99901.02
2017-09-29T16:58:45.919Z,99903.34
2017-09-29T17:02:50.906Z,99905.11
2017-09-29T17:06:54.363Z,99901.15
2017-09-29T17:10:57.838Z,99900.20
2017-09-29T17:15:01.291Z,99906.20
2017-09-29T17:19:05.569Z,99907.98
2017-09-29T17:23:09.072Z,99902.11
2017-09-29T17:27:12.550Z,99891.18
2017-09-29T17:31:16.006Z,99895.00
2017-09-29T17:35:19.490Z,99898.27
2017-09-29T17:39:23.104Z,99898.69
2017-09-29T17:43:26.583Z,99896.91
2017-09-29T17:47:31.685Z,99896.09
2017-09-29T17:51:35.431Z,99888.03
2017-09-29T17:55:39.652Z,99892.54
2017-09-29T17:59:43.891Z,99886.77
2017-09-29T18:03:48.107Z,99895.13
2017-09-29T18:07:52.351Z,99883.16
2017-09-29T18:11:55.798Z,99880.20
2017-09-29T18:15:59.284Z,99870.09
2017-09-29T18:20:02.865Z,99880.06
2017-09-29T18:24:07.125Z,99878.29
2017-09-29T18:28:10.582Z,99871.73
2017-09-29T18:32:15.124Z,99869.95
2017-09-29T18:36:19.334Z,99870.37
2017-09-29T18:40:24.141Z,99870.73
2017-09-29T18:44:27.610Z,99873.06
2017-09-29T18:48:32.055Z,99869.09
2017-09-29T18:52:35.516Z,99867.46
2017-09-29T18:56:39.003Z,99870.19
2017-09-29T19:00:42.466Z,99872.23
2017-09-29T19:04:45.951Z,99869.50
2017-09-29T19:08:50.172Z,99865.10
2017-09-29T19:12:54.426Z,99873.19
2017-09-29T19:16:57.898Z,99870.70
2017-09-29T19:21:01.383Z,99870.70
2017-09-29T19:25:04.842Z,99865.38
2017-09-29T19:29:08.649Z,99872.20
2017-09-29T19:33:12.110Z,99861.82
2017-09-29T19:37:15.606Z,99875.48
2017-09-29T19:41:19.106Z,99875.20
2017-09-29T19:45:22.579Z,99875.20
2017-09-29T19:49:26.043Z,99870.28
2017-09-29T19:53:29.525Z,99873.97
2017-09-29T19:57:32.969Z,99874.08
2017-09-29T20:01:36.465Z,99870.39
2017-09-29T20:05:39.921Z,99869.02
2017-09-29T20:09:43.407Z,99872.70
2017-09-29T20:13:47.629Z,99865.06
2017-09-29T20:17:51.894Z,99871.48
2017-09-29T20:21:55.357Z,99869.98
2017-09-29T20:25:59.611Z,99871.89
2017-09-29T20:30:03.101Z,99871.06
2017-09-29T20:34:07.352Z,99881.17
2017-09-29T20:38:10.863Z,99869.30
2017-09-29T20:42:14.354Z,99867.52
2017-09-29T20:46:18.579Z,99867.11
2017-09-29T20:50:22.823Z,99869.02
2017-09-29T20:54:26.275Z,99867.78
2017-09-29T20:58:29.759Z,99864.09
2017-09-29T21:02:33.207Z,99856.05
2017-09-29T21:06:36.697Z,99843.76
2017-09-29T21:10:40.147Z,99841.44
2017-09-29T21:14:43.943Z,99841.44
2017-09-29T21:18:48.159Z,99837.62
2017-09-29T21:22:51.648Z,99835.84
2017-09-29T21:26:55.099Z,99829.16
2017-09-29T21:30:58.587Z,99824.92
2017-09-29T21:35:02.811Z,99823.69
2017-09-29T21:39:07.059Z,99819.59
2017-09-29T21:43:10.519Z,99820.14
2017-09-29T21:47:14.347Z,99823.28
2017-09-29T21:51:17.799Z,99820.28
2017-09-29T21:55:21.294Z,99817.14
2017-09-29T21:59:24.758Z,99816.73
2017-09-29T22:03:28.647Z,99802.25
2017-09-29T22:07:32.107Z,99802.66
2017-09-29T22:11:36.354Z,99796.80
2017-09-29T22:15:39.808Z,99795.02
2017-09-29T22:19:43.273Z,99791.74
2017-09-29T22:23:46.717Z,99791.06
2017-09-29T22:27:50.191Z,99789.69
2017-09-29T22:31:53.647Z,99779.28
2017-09-29T22:35:57.123Z,99788.84
2017-09-29T22:40:00.585Z,99783.79
2017-09-29T22:44:04.846Z,99786.25
2017-09-29T22:48:08.291Z,99783.52
2017-09-29T22:52:11.771Z,99773.55
2017-09-29T22:56:15.223Z,99772.19
2017-09-29T23:00:18.708Z,99764.00
2017-09-29T23:04:22.166Z,99764.95
2017-09-29T23:08:25.988Z,99752.66
2017-09-29T23:12:29.507Z,99740.92
2017-09-29T23:16:32.987Z,99743.11
2017-09-29T23:20:36.415Z,99736.42
2017-09-29T23:24:39.896Z,99733.28
2017-09-29T23:28:44.111Z,99726.86
2017-09-29T23:32:48.357Z,99728.77
2017-09-29T23:36:51.810Z,99732.73
2017-09-29T23:40:55.294Z,99728.36
2017-09-29T23:44:58.742Z,99728.91
2017-09-29T23:49:02.228Z,99725.64
2017-09-29T23:53:05.682Z,99723.04
2017-09-29T23:57:10.212Z,99727.55
